Time,TemperatureF,DewpointF,PressureIn,WindDirection,WindDirectionDegrees,WindSpeedMPH,WindSpeedGustMPH,Humidity,HourlyPrecipIn,Conditions,Clouds,dailyrainin,SoftwareType,DateUTC
2013-09-04 00:14:00,59.0,52.0,29.94,West,259,4.0,-999.0,79,-99.99,,,-99.99,,2013-09-04 04:14:00,
2013-09-04 00:54:00,58.0,53.0,29.94,SW,220,2.0,-999.0,82,-99.99,,,-99.99,,2013-09-04 04:54:00,
2013-09-04 01:12:00,58.0,53.0,29.93,SW,215,2.0,-999.0,82,-99.99,,,-99.99,,2013-09-04 05:12:00,
2013-09-04 01:23:00,58.0,53.0,29.93,SSW,209,4.0,-999.0,83,-99.99,,,-99.99,,2013-09-04 05:23:00,
2013-09-04 01:53:00,57.0,52.0,29.93,SW,226,4.0,-999.0,84,-99.99,,,-99.99,,2013-09-04 05:53:00,
2013-09-04 02:12:00,57.0,53.0,29.93,SW,218,5.0,-999.0,85,-99.99,,,-99.99,,2013-09-04 06:12:00,
2013-09-04 02:22:00,57.0,53.0,29.93,SW,229,5.0,-999.0,86,-99.99,,,-99.99,,2013-09-04 06:22:00,
2013-09-04 02:32:00,57.0,53.0,29.93,SW,229,5.0,-999.0,86,-99.99,,,-99.99,,2013-09-04 06:32:00,
2013-09-04 02:52:00,56.0,52.0,29.93,SW,236,5.0,-999.0,88,-99.99,,,-99.99,,2013-09-04 06:52:00,
2013-09-04 03:12:00,56.0,52.0,29.93,SW,235,4.0,-999.0,88,-99.99,,,-99.99,,2013-09-04 07:12:00,
2013-09-04 03:22:00,56.0,53.0,29.93,SSW,196,5.0,-999.0,89,-99.99,,,-99.99,,2013-09-04 07:22:00,
2013-09-04 03:52:00,56.0,53.0,29.93,SW,229,5.0,-999.0,89,-99.99,,,-99.99,,2013-09-04 07:52:00,
2013-09-04 04:13:00,56.0,53.0,29.93,SSW,209,5.0,-999.0,90,-99.99,,,-99.99,,2013-09-04 08:13:00,
2013-09-04 04:22:00,56.0,53.0,29.93,SW,214,4.0,-999.0,90,-99.99,,,-99.99,,2013-09-04 08:22:00,
2013-09-04 04:32:00,56.0,53.0,29.93,SW,214,4.0,-999.0,90,-99.99,,,-99.99,,2013-09-04 08:32:00,
2013-09-04 04:52:00,56.0,53.0,29.93,WSW,254,6.0,-999.0,91,-99.99,,,-99.99,,2013-09-04 08:52:00,
2013-09-04 05:12:00,56.0,54.0,29.93,SSW,205,5.0,-999.0,92,-99.99,,,-99.99,,2013-09-04 09:12:00,
2013-09-04 05:22:00,56.0,54.0,29.93,South,176,5.0,-999.0,92,-99.99,,,-99.99,,2013-09-04 09:22:00,
2013-09-04 05:43:00,57.0,55.0,29.93,SW,216,6.0,-999.0,93,-99.99,,,-99.99,,2013-09-04 09:43:00,
2013-09-04 05:53:00,57.0,55.0,29.93,SW,220,5.0,-999.0,93,-99.99,,,-99.99,,2013-09-04 09:53:00,
2013-09-04 06:12:00,57.0,55.0,29.93,SW,225,5.0,-999.0,93,-99.99,,,-99.99,,2013-09-04 10:12:00,
2013-09-04 06:23:00,57.0,55.0,29.94,SSW,200,5.0,-999.0,93,-99.99,,,-99.99,,2013-09-04 10:23:00,
2013-09-04 06:52:00,57.0,55.0,29.94,SSW,192,6.0,-999.0,94,-99.99,,,-99.99,,2013-09-04 10:52:00,
2013-09-04 07:12:00,57.0,55.0,29.94,South,189,5.0,-999.0,94,-99.99,,,-99.99,,2013-09-04 11:12:00,
2013-09-04 07:22:00,57.0,56.0,29.94,WSW,244,5.0,-999.0,95,-99.99,,,-99.99,,2013-09-04 11:22:00,
2013-09-04 07:52:00,58.0,56.0,29.95,SSW,202,5.0,-999.0,94,-99.99,,,-99.99,,2013-09-04 11:52:00,
2013-09-04 08:12:00,58.0,56.0,29.94,WSW,242,6.0,-999.0,93,-99.99,,,-99.99,,2013-09-04 12:12:00,
2013-09-04 08:21:00,59.0,57.0,29.94,SSW,200,6.0,-999.0,92,-99.99,,,-99.99,,2013-09-04 12:21:00,
2013-09-04 08:42:00,60.0,57.0,29.94,WSW,245,5.0,-999.0,91,-99.99,,,-99.99,,2013-09-04 12:42:00,
2013-09-04 08:52:00,60.0,57.0,29.95,SSE,167,6.0,-999.0,90,-99.99,,,-99.99,,2013-09-04 12:52:00,
2013-09-04 09:12:00,61.0,58.0,29.95,South,181,7.0,-999.0,89,-99.99,,,-99.99,,2013-09-04 13:12:00,
2013-09-04 09:22:00,62.0,58.0,29.95,SSW,211,4.0,-999.0,87,-99.99,,,-99.99,,2013-09-04 13:22:00,
2013-09-04 09:52:00,64.0,59.0,29.96,West,269,5.0,-999.0,84,-99.99,,,-99.99,,2013-09-04 13:52:00,
2013-09-04 10:11:00,65.0,59.0,29.96,WSW,242,6.0,-999.0,81,-99.99,,,-99.99,,2013-09-04 14:11:00,
2013-09-04 10:21:00,67.0,60.0,29.96,West,281,6.0,-999.0,77,-99.99,,,-99.99,,2013-09-04 14:21:00,
2013-09-04 10:42:00,68.0,60.0,29.97,WNW,302,6.0,-999.0,75,-99.99,,,-99.99,,2013-09-04 14:42:00,
2013-09-04 10:52:00,68.0,59.0,29.96,WSW,242,7.0,-999.0,73,-99.99,,,-99.99,,2013-09-04 14:52:00,
2013-09-04 11:12:00,69.0,60.0,29.96,WSW,237,7.0,-999.0,72,-99.99,,,-99.99,,2013-09-04 15:12:00,
2013-09-04 11:22:00,70.0,60.0,29.96,SW,233,5.0,-999.0,70,-99.99,,,-99.99,,2013-09-04 15:22:00,
2013-09-04 11:53:00,72.0,61.0,29.96,West,260,5.0,-999.0,69,-99.99,,,-99.99,,2013-09-04 15:53:00,
2013-09-04 12:12:00,73.0,61.0,29.96,WNW,282,6.0,-999.0,67,-99.99,,,-99.99,,2013-09-04 16:12:00,
2013-09-04 12:23:00,74.0,62.0,29.95,West,269,5.0,-999.0,67,-99.99,,,-99.99,,2013-09-04 16:23:00,
2013-09-04 12:43:00,74.0,62.0,29.96,SSW,204,6.0,-999.0,67,-99.99,,,-99.99,,2013-09-04 16:43:00,
2013-09-04 12:53:00,74.0,62.0,29.95,WSW,244,5.0,-999.0,67,-99.99,,,-99.99,,2013-09-04 16:53:00,
2013-09-04 13:13:00,74.0,62.0,29.94,West,269,7.0,-999.0,67,-99.99,,,-99.99,,2013-09-04 17:13:00,
2013-09-04 13:23:00,75.0,62.0,29.94,SSW,200,7.0,-999.0,65,-99.99,,,-99.99,,2013-09-04 17:23:00,
2013-09-04 13:53:00,77.0,63.0,29.95,SW,235,6.0,-999.0,63,-99.99,,,-99.99,,2013-09-04 17:53:00,
2013-09-04 14:13:00,78.0,63.0,29.95,WSW,257,6.0,-999.0,61,-99.99,,,-99.99,,2013-09-04 18:13:00,
2013-09-04 14:22:00,78.0,63.0,29.95,WNW,299,6.0,-999.0,60,-99.99,,,-99.99,,2013-09-04 18:22:00,
2013-09-04 14:42:00,79.0,64.0,29.94,West,278,5.0,-999.0,61,-99.99,,,-99.99,,2013-09-04 18:42:00,
2013-09-04 14:52:00,79.0,65.0,29.94,WSW,248,6.0,-999.0,62,-99.99,,,-99.99,,2013-09-04 18:52:00,
2013-09-04 15:11:00,79.0,64.0,29.93,WNW,286,6.0,-999.0,61,-99.99,,,-99.99,,2013-09-04 19:11:00,
2013-09-04 15:22:00,79.0,64.0,29.93,WNW,292,6.0,-999.0,60,-99.99,,,-99.99,,2013-09-04 19:22:00,
2013-09-04 15:53:00,78.0,64.0,29.93,NW,315,8.0,-999.0,63,-99.99,,,-99.99,,2013-09-04 19:53:00,
2013-09-04 16:12:00,74.0,64.0,29.95,NE,38,10.0,-999.0,71,-99.99,,,-99.99,,2013-09-04 20:12:00,
2013-09-04 16:22:00,71.0,66.0,29.95,NE,50,10.0,-999.0,83,-99.99,,,-99.99,,2013-09-04 20:22:00,
2013-09-04 17:54:00,67.0,63.0,29.96,NNE,20,7.0,-999.0,88,-99.99,,,-99.99,,2013-09-04 21:54:00,
2013-09-04 18:14:00,67.0,63.0,29.96,NNE,32,9.0,-999.0,86,-99.99,,,-99.99,,2013-09-04 22:14:00,
2013-09-04 18:23:00,66.0,62.0,29.97,NE,49,10.0,-999.0,87,-99.99,,,-99.99,,2013-09-04 22:23:00,
2013-09-04 18:55:00,66.0,62.0,29.97,NE,48,9.0,-999.0,88,-99.99,,,-99.99,,2013-09-04 22:55:00,
2013-09-04 19:13:00,66.0,62.0,29.98,NNE,17,8.0,-999.0,87,-99.99,,,-99.99,,2013-09-04 23:13:00,
2013-09-04 19:22:00,66.0,62.0,29.98,NNE,30,6.0,-999.0,88,-99.99,,,-99.99,,2013-09-04 23:22:00,
2013-09-04 19:52:00,65.0,61.0,29.98,NE,40,6.0,-999.0,88,-99.99,,,-99.99,,2013-09-04 23:52:00,
2013-09-04 20:12:00,65.0,62.0,29.98,NE,55,4.0,-999.0,89,-99.99,,,-99.99,,2013-09-05 00:12:00,
2013-09-04 20:22:00,65.0,62.0,29.99,NNE,14,5.0,-999.0,90,-99.99,,,-99.99,,2013-09-05 00:22:00,
2013-09-04 20:43:00,64.0,61.0,29.99,NE,39,3.0,-999.0,90,-99.99,,,-99.99,,2013-09-05 00:43:00,
2013-09-04 20:52:00,64.0,61.0,30.00,NE,39,1.0,-999.0,90,-99.99,,,-99.99,,2013-09-05 00:52:00,
2013-09-04 21:12:00,63.0,60.0,30.00,NE,39,1.0,-999.0,91,-99.99,,,-99.99,,2013-09-05 01:12:00,
2013-09-04 21:22:00,62.0,60.0,30.01,NE,39,1.0,-999.0,92,-99.99,,,-99.99,,2013-09-05 01:22:00,
2013-09-04 21:42:00,61.0,59.0,30.01,NNW,330,2.0,-999.0,92,-99.99,,,-99.99,,2013-09-05 01:42:00,
2013-09-04 21:52:00,62.0,60.0,30.02,North,351,1.0,-999.0,93,-99.99,,,-99.99,,2013-09-05 01:52:00,
2013-09-04 22:12:00,62.0,60.0,30.02,North,351,0.0,-999.0,94,-99.99,,,-99.99,,2013-09-05 02:12:00,
2013-09-04 22:22:00,61.0,59.0,30.03,North,351,0.0,-999.0,93,-99.99,,,-99.99,,2013-09-05 02:22:00,
2013-09-04 23:12:00,59.0,58.0,30.04,NW,307,5.0,-999.0,95,-99.99,,,-99.99,,2013-09-05 03:12:00,
2013-09-04 23:22:00,60.0,56.0,30.04,NW,326,7.0,-999.0,86,-99.99,,,-99.99,,2013-09-05 03:22:00,
2013-09-04 23:45:00,58.0,55.0,30.05,NNW,338,7.0,-999.0,89,-99.99,,,-99.99,,2013-09-05 03:45:00,
2013-09-04 23:54:00,58.0,54.0,30.05,North,355,7.0,-999.0,88,-99.99,,,-99.99,,2013-09-05 03:54:00,